METAR Formatted Surface Weather Observation
Issued by NWS

Home | Current Version | Previous Version | Text Only | Print | Product List | Glossary On
Versions: 1 2 3 4 5 6 7
000
SAUS45 KPSR 290558
MTRFHU
METAR KFHU 290556Z AUTO 19012KT 10SM CLR 21/14 A3007 RMK AO2 SLP120
T02060139 10256 20206 50001 $



USA.gov is the U.S. government's official web portal to all federal, state and local government web resources and services.